createdAt,value
2022-08-07T00:00:52.032Z,28.82
2022-08-07T00:03:19.464Z,28.84
2022-08-07T00:05:53.053Z,28.86
2022-08-07T00:08:21.855Z,28.85
2022-08-07T00:10:57.625Z,28.88
2022-08-07T00:13:26.726Z,28.91
2022-08-07T00:15:54.787Z,28.89
2022-08-07T00:18:25.421Z,28.88
2022-08-07T00:20:54.051Z,28.89
2022-08-07T00:23:21.722Z,28.92
2022-08-07T00:25:59.005Z,28.90
2022-08-07T00:28:33.208Z,28.94
2022-08-07T00:31:04.553Z,28.92
2022-08-07T00:33:33.960Z,28.92
2022-08-07T00:36:01.275Z,28.91
2022-08-07T00:38:31.512Z,28.85
2022-08-07T00:41:00.577Z,28.81
2022-08-07T00:44:01.714Z,28.83
2022-08-07T00:46:14.941Z,28.82
2022-08-07T00:48:42.626Z,28.83
2022-08-07T00:51:10.668Z,28.83
2022-08-07T00:53:38.593Z,28.82
2022-08-07T00:56:13.880Z,28.86
2022-08-07T00:58:42.634Z,28.85
2022-08-07T01:01:14.032Z,28.92
2022-08-07T01:03:55.511Z,28.91
2022-08-07T01:06:28.317Z,28.95
2022-08-07T01:08:58.450Z,28.94
2022-08-07T01:12:09.583Z,28.94
2022-08-07T01:14:21.489Z,28.91
2022-08-07T01:16:56.360Z,28.95
2022-08-07T01:19:24.657Z,28.91
2022-08-07T01:21:55.307Z,28.90
2022-08-07T01:24:23.201Z,28.89
2022-08-07T01:26:51.916Z,28.86
2022-08-07T01:29:20.017Z,28.84
2022-08-07T01:31:48.106Z,28.83
2022-08-07T01:34:16.176Z,28.89
2022-08-07T01:36:45.348Z,28.90
2022-08-07T01:39:21.563Z,28.88
2022-08-07T01:41:55.274Z,28.86
2022-08-07T01:44:35.470Z,28.90
2022-08-07T01:48:16.967Z,28.89
2022-08-07T01:49:54.683Z,28.92
2022-08-07T01:52:26.693Z,28.95
2022-08-07T01:54:57.144Z,28.92
2022-08-07T01:57:30.044Z,28.94
2022-08-07T02:00:12.776Z,28.91
2022-08-07T02:03:18.405Z,28.91
2022-08-07T02:05:48.295Z,28.94
2022-08-07T02:08:24.646Z,28.96
2022-08-07T02:10:57.952Z,28.94
2022-08-07T02:14:02.304Z,28.90
2022-08-07T02:16:17.279Z,28.90
2022-08-07T02:18:51.192Z,28.83
2022-08-07T02:21:20.202Z,28.84
2022-08-07T02:23:49.355Z,28.89
2022-08-07T02:26:32.588Z,28.91
2022-08-07T02:29:03.195Z,28.91
2022-08-07T02:31:32.700Z,28.92
2022-08-07T02:34:10.943Z,28.91
2022-08-07T02:36:41.243Z,28.92
2022-08-07T02:39:17.271Z,28.96
2022-08-07T02:41:59.528Z,28.93
2022-08-07T02:44:34.345Z,28.94
2022-08-07T02:47:03.729Z,28.97
2022-08-07T02:49:56.377Z,28.99
2022-08-07T02:52:32.051Z,28.95
2022-08-07T02:55:04.761Z,28.94
2022-08-07T02:57:56.929Z,28.96
2022-08-07T03:00:28.238Z,28.95
2022-08-07T03:02:58.460Z,28.93
2022-08-07T03:05:29.115Z,28.90
2022-08-07T03:08:07.545Z,28.85
2022-08-07T03:10:41.138Z,28.86
2022-08-07T03:13:19.361Z,28.82
2022-08-07T03:15:56.422Z,28.86
2022-08-07T03:18:34.634Z,28.89
2022-08-07T03:21:05.153Z,28.86
2022-08-07T03:24:18.372Z,28.89
2022-08-07T03:26:27.914Z,28.91
2022-08-07T03:28:58.391Z,28.94
2022-08-07T03:31:43.401Z,28.94
2022-08-07T03:34:18.445Z,28.95
2022-08-07T03:36:50.803Z,28.92
2022-08-07T03:39:46.007Z,28.95
2022-08-07T03:42:07.951Z,28.96
2022-08-07T03:44:38.534Z,28.94
2022-08-07T03:47:13.361Z,28.93
2022-08-07T03:49:52.531Z,28.92
2022-08-07T03:52:26.414Z,28.93
2022-08-07T03:54:57.305Z,28.91
2022-08-07T03:58:33.613Z,28.88
2022-08-07T04:00:30.347Z,28.92
2022-08-07T04:02:58.464Z,28.89
2022-08-07T04:05:39.414Z,28.85
2022-08-07T04:08:11.026Z,28.85
2022-08-07T04:10:39.017Z,28.86
2022-08-07T04:13:15.105Z,28.90
2022-08-07T04:15:45.394Z,28.91
2022-08-07T04:18:58.352Z,28.92
2022-08-07T04:21:01.695Z,28.93
2022-08-07T04:24:01.944Z,28.94
2022-08-07T04:26:21.970Z,28.98
2022-08-07T04:28:49.435Z,28.95
2022-08-07T04:31:20.121Z,28.96
2022-08-07T04:33:54.932Z,28.93
2022-08-07T04:36:26.203Z,28.92
2022-08-07T04:38:53.831Z,28.92
2022-08-07T04:41:21.151Z,28.94
2022-08-07T04:44:10.664Z,28.92
2022-08-07T04:46:59.624Z,28.90
2022-08-07T04:49:39.546Z,28.94
2022-08-07T04:52:14.399Z,28.93
2022-08-07T04:54:53.983Z,28.95
2022-08-07T04:58:12.382Z,28.94
2022-08-07T05:00:23.991Z,28.94
2022-08-07T05:03:17.160Z,28.96
2022-08-07T05:06:19.184Z,28.96
2022-08-07T05:09:01.458Z,28.95
2022-08-07T05:11:57.007Z,29.02
2022-08-07T05:14:53.516Z,28.94
2022-08-07T05:17:52.232Z,28.98
2022-08-07T05:20:13.482Z,28.97
2022-08-07T05:22:43.430Z,28.96
2022-08-07T05:25:25.957Z,28.97
2022-08-07T05:28:02.816Z,28.97
2022-08-07T05:30:44.623Z,28.95
2022-08-07T05:33:16.156Z,28.96
2022-08-07T05:35:47.902Z,28.91
2022-08-07T05:39:01.013Z,28.88
2022-08-07T05:41:05.444Z,28.91
2022-08-07T05:43:56.458Z,28.90
2022-08-07T05:46:31.043Z,28.97
2022-08-07T05:49:00.328Z,28.96
2022-08-07T05:51:31.802Z,28.96
2022-08-07T05:54:12.472Z,29.02
2022-08-07T05:56:51.441Z,28.96
2022-08-07T05:59:21.092Z,28.93
2022-08-07T06:01:50.141Z,28.98
2022-08-07T06:04:21.248Z,28.98
2022-08-07T06:07:03.763Z,28.92
2022-08-07T06:09:45.043Z,28.95
2022-08-07T06:12:21.155Z,28.98
2022-08-07T06:15:05.275Z,28.99
2022-08-07T06:17:37.772Z,28.98
2022-08-07T06:20:12.351Z,29.02
2022-08-07T06:23:02.558Z,29.02
2022-08-07T06:25:54.484Z,28.99
2022-08-07T06:28:27.660Z,28.97
2022-08-07T06:30:56.160Z,28.88
2022-08-07T06:33:24.525Z,28.89
2022-08-07T06:36:12.020Z,28.98
2022-08-07T06:38:58.652Z,29.04
2022-08-07T06:42:00.384Z,29.10
2022-08-07T06:44:21.440Z,29.17
2022-08-07T06:46:53.623Z,29.21
2022-08-07T06:49:52.305Z,29.18
2022-08-07T06:52:31.839Z,29.01
2022-08-07T06:55:32.587Z,28.91
2022-08-07T06:58:04.166Z,28.90
2022-08-07T07:00:35.955Z,28.80
2022-08-07T07:03:08.491Z,28.84
2022-08-07T07:06:03.135Z,28.81
2022-08-07T07:08:27.643Z,28.44
2022-08-07T07:10:58.836Z,28.54
2022-08-07T07:13:43.614Z,28.45
2022-08-07T07:16:23.733Z,28.19
2022-08-07T07:18:59.386Z,28.20
2022-08-07T07:21:40.329Z,28.13
2022-08-07T07:24:17.545Z,28.03
2022-08-07T07:26:49.592Z,28.07
2022-08-07T07:29:56.558Z,28.08
2022-08-07T07:32:13.957Z,28.05
2022-08-07T07:34:45.605Z,28.10
2022-08-07T07:37:44.488Z,28.05
2022-08-07T07:40:10.246Z,28.02
2022-08-07T07:42:47.140Z,28.02
2022-08-07T07:45:24.489Z,28.01
2022-08-07T07:48:11.131Z,28.07
2022-08-07T07:50:40.172Z,28.00
2022-08-07T07:53:20.168Z,27.94
2022-08-07T07:55:57.789Z,27.85
2022-08-07T07:58:40.488Z,27.84
2022-08-07T08:02:03.151Z,27.75
2022-08-07T08:04:09.697Z,27.75
2022-08-07T08:06:39.423Z,27.83
2022-08-07T08:09:08.487Z,27.76
2022-08-07T08:11:59.987Z,27.71
2022-08-07T08:14:26.657Z,27.72
2022-08-07T08:16:56.033Z,27.75
2022-08-07T08:20:17.329Z,27.61
2022-08-07T08:22:33.086Z,27.20
2022-08-07T08:25:18.342Z,27.11
2022-08-07T08:27:56.701Z,27.15
2022-08-07T08:30:28.096Z,26.90
2022-08-07T08:32:59.370Z,26.91
2022-08-07T08:35:28.908Z,26.92
2022-08-07T08:38:08.424Z,27.13
2022-08-07T08:40:43.886Z,27.15
2022-08-07T08:43:19.879Z,27.04
2022-08-07T08:45:59.092Z,27.06
2022-08-07T08:48:36.393Z,27.11
2022-08-07T08:51:14.486Z,27.11
2022-08-07T08:53:55.087Z,27.24
2022-08-07T08:56:26.270Z,27.17
2022-08-07T08:58:59.928Z,26.87
2022-08-07T09:01:46.541Z,26.62
2022-08-07T09:04:25.976Z,26.58
2022-08-07T09:07:03.444Z,26.84
2022-08-07T09:09:57.229Z,26.58
2022-08-07T09:12:40.998Z,27.03
2022-08-07T09:16:20.045Z,27.18
2022-08-07T09:18:23.633Z,27.09
2022-08-07T09:21:03.738Z,26.97
2022-08-07T09:24:32.504Z,26.96
2022-08-07T09:26:51.129Z,27.03
2022-08-07T09:30:05.591Z,26.86
2022-08-07T09:32:26.495Z,26.73
2022-08-07T09:36:04.017Z,26.91
2022-08-07T09:38:00.431Z,26.98
2022-08-07T09:40:47.137Z,27.03
2022-08-07T09:44:03.588Z,27.25
2022-08-07T09:47:50.441Z,27.34
2022-08-07T09:50:01.778Z,27.29
2022-08-07T09:52:42.490Z,27.21
2022-08-07T09:55:28.764Z,27.21
2022-08-07T09:58:32.454Z,27.30
2022-08-07T10:01:15.030Z,27.33
2022-08-07T10:04:17.283Z,27.31
2022-08-07T10:07:26.302Z,27.39
2022-08-07T10:10:12.094Z,27.43
2022-08-07T10:13:11.021Z,27.62
2022-08-07T10:16:16.029Z,27.58
2022-08-07T10:19:11.311Z,27.32
2022-08-07T10:22:14.088Z,27.27
2022-08-07T10:24:50.904Z,27.42
2022-08-07T10:27:46.897Z,27.24
2022-08-07T10:30:18.508Z,27.11
2022-08-07T10:33:13.069Z,27.17
2022-08-07T10:36:11.081Z,27.02
2022-08-07T10:38:49.920Z,27.04
2022-08-07T10:41:46.882Z,26.76
2022-08-07T10:44:33.904Z,26.73
2022-08-07T10:47:18.523Z,26.87
2022-08-07T10:50:03.237Z,26.77
2022-08-07T10:52:37.271Z,26.79
2022-08-07T10:55:20.978Z,26.87
2022-08-07T10:58:15.714Z,26.91
2022-08-07T11:00:56.308Z,26.96
2022-08-07T11:03:37.844Z,27.09
2022-08-07T11:06:18.510Z,27.07
2022-08-07T11:08:54.867Z,27.01
2022-08-07T11:11:27.353Z,27.09
2022-08-07T11:14:46.028Z,27.06
2022-08-07T11:16:56.785Z,27.09
2022-08-07T11:19:35.101Z,27.03
2022-08-07T11:22:18.945Z,27.13
2022-08-07T11:25:06.607Z,26.99
2022-08-07T11:28:02.342Z,26.96
2022-08-07T11:30:41.399Z,27.11
2022-08-07T11:33:54.137Z,27.27
2022-08-07T11:36:25.170Z,27.30
2022-08-07T11:39:00.530Z,27.18
2022-08-07T11:42:01.863Z,27.09
2022-08-07T11:44:36.197Z,27.10
2022-08-07T11:47:12.499Z,27.26
2022-08-07T11:50:30.786Z,27.29
2022-08-07T11:53:02.688Z,27.35
2022-08-07T11:56:15.517Z,27.44
2022-08-07T11:58:44.424Z,27.47
2022-08-07T12:01:58.682Z,27.49
2022-08-07T12:04:45.779Z,27.53
2022-08-07T12:07:26.918Z,27.49
2022-08-07T12:10:02.242Z,27.47
2022-08-07T12:12:42.504Z,27.48
2022-08-07T12:15:17.385Z,27.46
2022-08-07T12:18:12.649Z,27.50
2022-08-07T12:20:49.351Z,27.55
2022-08-07T12:23:37.194Z,27.48
2022-08-07T12:26:29.713Z,27.56
2022-08-07T12:29:07.378Z,27.66
2022-08-07T12:31:52.685Z,27.79
2022-08-07T12:34:29.881Z,27.85
2022-08-07T12:36:59.560Z,27.92
2022-08-07T12:39:43.239Z,27.96
2022-08-07T12:42:15.552Z,28.00
2022-08-07T12:44:47.626Z,27.97
2022-08-07T12:47:27.063Z,28.01
2022-08-07T12:50:38.113Z,28.05
2022-08-07T12:52:59.525Z,28.05
2022-08-07T12:55:41.350Z,28.15
2022-08-07T12:58:28.255Z,28.11
2022-08-07T13:01:12.257Z,28.10
2022-08-07T13:04:02.947Z,28.13
2022-08-07T13:07:00.880Z,28.16
2022-08-07T13:10:28.474Z,28.15
2022-08-07T13:12:50.980Z,28.19
2022-08-07T13:15:31.750Z,28.21
2022-08-07T13:18:26.867Z,28.24
2022-08-07T13:21:02.778Z,28.34
2022-08-07T13:24:01.624Z,28.40
2022-08-07T13:26:31.291Z,28.45
2022-08-07T13:29:09.329Z,28.43
2022-08-07T13:31:55.043Z,28.47
2022-08-07T13:34:35.984Z,28.51
2022-08-07T13:37:10.661Z,28.52
2022-08-07T13:40:34.018Z,28.46
2022-08-07T13:42:39.846Z,28.51
2022-08-07T13:46:06.338Z,28.50
2022-08-07T13:48:06.149Z,28.46
2022-08-07T13:50:44.981Z,28.50
2022-08-07T13:53:55.172Z,28.55
2022-08-07T13:56:20.233Z,28.58
2022-08-07T13:59:10.349Z,28.62
2022-08-07T14:01:55.506Z,28.66
2022-08-07T14:04:35.766Z,28.68
2022-08-07T14:07:09.486Z,28.72
2022-08-07T14:10:02.890Z,28.73
2022-08-07T14:12:30.797Z,28.81
2022-08-07T14:15:04.474Z,28.83
2022-08-07T14:18:13.654Z,28.84
2022-08-07T14:20:40.178Z,28.78
2022-08-07T14:23:31.683Z,28.78
2022-08-07T14:26:23.602Z,28.78
2022-08-07T14:29:04.324Z,28.74
2022-08-07T14:31:42.725Z,28.73
2022-08-07T14:34:29.288Z,28.70
2022-08-07T14:37:02.988Z,28.67
2022-08-07T14:40:16.671Z,28.64
2022-08-07T14:42:25.141Z,28.62
2022-08-07T14:44:59.738Z,28.61
2022-08-07T14:47:32.391Z,28.62
2022-08-07T14:50:05.281Z,28.60
2022-08-07T14:52:34.986Z,28.62
2022-08-07T14:55:03.805Z,28.61
2022-08-07T14:57:54.667Z,28.64
2022-08-07T15:03:17.466Z,28.70
2022-08-07T15:05:54.112Z,28.74
2022-08-07T15:08:33.826Z,28.82
2022-08-07T15:11:05.521Z,28.90
2022-08-07T15:13:36.868Z,28.96
2022-08-07T15:16:10.969Z,28.98
2022-08-07T15:18:43.971Z,28.96
2022-08-07T15:27:06.207Z,29.02
2022-08-07T15:30:10.913Z,29.02
2022-08-07T15:32:40.094Z,28.99
2022-08-07T15:35:16.941Z,29.01
2022-08-07T15:38:04.548Z,28.99
2022-08-07T15:40:39.001Z,29.02
2022-08-07T15:43:53.196Z,29.04
2022-08-07T15:46:31.728Z,29.08
2022-08-07T15:54:42.032Z,29.21
2022-08-07T15:57:27.933Z,29.22
2022-08-07T16:00:04.369Z,29.24
2022-08-07T16:02:42.213Z,29.25
2022-08-07T16:05:17.376Z,29.27
2022-08-07T16:08:31.754Z,29.28
2022-08-07T16:10:38.427Z,29.26
2022-08-07T16:13:59.211Z,29.29
2022-08-07T16:16:57.022Z,29.31
2022-08-07T16:20:00.028Z,29.27
2022-08-07T16:22:55.104Z,29.27
2022-08-07T16:25:53.946Z,29.28
2022-08-07T16:30:07.033Z,29.26
2022-08-07T16:31:57.577Z,29.30
2022-08-07T16:34:48.208Z,29.29
2022-08-07T16:38:04.885Z,29.30
2022-08-07T16:41:01.873Z,29.41
2022-08-07T16:44:06.017Z,29.45
2022-08-07T16:47:51.367Z,29.45
2022-08-07T16:50:38.752Z,29.48
2022-08-07T16:54:06.012Z,29.50
2022-08-07T16:56:53.466Z,29.54
2022-08-07T16:59:47.127Z,29.40
2022-08-07T17:02:52.982Z,29.49
2022-08-07T17:06:30.446Z,29.53
2022-08-07T17:09:08.657Z,29.54
2022-08-07T17:12:01.527Z,29.51
2022-08-07T17:14:32.357Z,29.54
2022-08-07T17:17:04.695Z,29.56
2022-08-07T17:20:02.015Z,29.57
2022-08-07T17:22:36.452Z,29.60
2022-08-07T17:25:12.852Z,29.63
2022-08-07T17:27:58.213Z,29.60
2022-08-07T17:30:32.426Z,29.63
2022-08-07T17:34:08.677Z,29.68
2022-08-07T17:36:13.440Z,29.71
2022-08-07T17:39:00.352Z,29.71
2022-08-07T17:42:04.557Z,29.65
2022-08-07T17:44:45.529Z,29.63
2022-08-07T17:47:42.309Z,29.67
2022-08-07T17:50:19.327Z,29.65
2022-08-07T17:52:53.074Z,29.62
2022-08-07T17:56:00.187Z,29.64
2022-08-07T17:58:30.440Z,29.62
2022-08-07T18:01:02.671Z,29.55
2022-08-07T18:04:08.136Z,29.48
2022-08-07T18:06:48.113Z,29.39
2022-08-07T18:09:48.220Z,29.34
2022-08-07T18:12:51.491Z,29.29
2022-08-07T18:15:23.268Z,29.32
2022-08-07T18:18:45.379Z,29.32
2022-08-07T18:21:08.186Z,29.34
2022-08-07T18:24:02.729Z,29.43
2022-08-07T18:27:08.032Z,29.48
2022-08-07T18:30:06.950Z,29.51
2022-08-07T18:33:15.502Z,29.51
2022-08-07T18:35:57.472Z,29.55
2022-08-07T18:38:55.946Z,29.59
2022-08-07T18:41:45.900Z,29.57
2022-08-07T18:45:09.189Z,29.59
2022-08-07T18:47:44.594Z,29.58
2022-08-07T18:50:44.189Z,29.48
2022-08-07T18:53:22.020Z,29.35
2022-08-07T18:56:13.705Z,29.33
2022-08-07T18:59:47.631Z,29.35
2022-08-07T19:02:19.772Z,29.34
2022-08-07T19:05:14.982Z,29.33
2022-08-07T19:07:57.077Z,29.34
2022-08-07T19:10:31.293Z,29.39
2022-08-07T19:13:11.827Z,29.44
2022-08-07T19:16:04.559Z,29.45
2022-08-07T19:18:45.074Z,29.51
2022-08-07T19:21:48.046Z,29.54
2022-08-07T19:24:30.835Z,29.53
2022-08-07T19:28:29.592Z,29.49
2022-08-07T19:30:57.727Z,29.49
2022-08-07T19:32:46.470Z,29.50
2022-08-07T19:35:18.956Z,29.53
2022-08-07T19:37:57.644Z,29.54
2022-08-07T19:40:31.654Z,29.45
2022-08-07T19:43:09.448Z,29.38
2022-08-07T19:46:05.977Z,29.36
2022-08-07T19:48:42.768Z,29.34
2022-08-07T19:51:19.797Z,29.35
2022-08-07T19:54:33.179Z,29.36
2022-08-07T19:57:52.207Z,29.36
2022-08-07T19:59:40.540Z,29.38
2022-08-07T20:02:19.156Z,29.38
2022-08-07T20:04:50.150Z,29.40
2022-08-07T20:07:27.021Z,29.40
2022-08-07T20:10:36.181Z,29.40
2022-08-07T20:13:06.117Z,29.38
2022-08-07T20:15:37.119Z,29.45
2022-08-07T20:18:14.640Z,29.45
2022-08-07T20:20:46.057Z,29.49
2022-08-07T20:23:33.084Z,29.46
2022-08-07T20:26:10.697Z,29.49
2022-08-07T20:28:41.587Z,29.46
2022-08-07T20:31:21.290Z,29.39
2022-08-07T20:33:56.696Z,29.33
2022-08-07T20:36:27.221Z,29.33
2022-08-07T20:39:00.497Z,29.33
2022-08-07T20:41:37.996Z,29.35
2022-08-07T20:44:12.449Z,29.34
2022-08-07T20:46:44.622Z,29.33
2022-08-07T20:50:00.201Z,29.33
2022-08-07T20:52:09.350Z,29.37
2022-08-07T20:54:53.427Z,29.36
2022-08-07T20:57:26.240Z,29.40
2022-08-07T21:00:06.281Z,29.40
2022-08-07T21:02:39.229Z,29.39
2022-08-07T21:05:16.098Z,29.37
2022-08-07T21:07:49.625Z,29.40
2022-08-07T21:10:29.670Z,29.38
2022-08-07T21:13:03.057Z,29.41
2022-08-07T21:15:58.740Z,29.43
2022-08-07T21:18:27.964Z,29.42
2022-08-07T21:20:59.834Z,29.36
2022-08-07T21:23:49.449Z,29.32
2022-08-07T21:26:34.791Z,29.31
2022-08-07T21:29:15.728Z,29.32
2022-08-07T21:32:46.988Z,29.30
2022-08-07T21:34:46.239Z,29.31
2022-08-07T21:37:23.918Z,29.31
2022-08-07T21:39:59.470Z,29.34
2022-08-07T21:42:42.688Z,29.35
2022-08-07T21:46:07.693Z,29.41
2022-08-07T21:48:27.864Z,29.39
2022-08-07T21:51:20.049Z,29.39
2022-08-07T21:54:04.141Z,29.40
2022-08-07T21:56:47.786Z,29.40
2022-08-07T21:59:29.706Z,29.47
2022-08-07T22:02:10.786Z,29.48
2022-08-07T22:04:51.119Z,29.52
2022-08-07T22:07:31.822Z,29.52
2022-08-07T22:10:18.211Z,29.42
2022-08-07T22:12:50.834Z,29.34
2022-08-07T22:16:38.516Z,29.34
2022-08-07T22:18:14.930Z,29.34
2022-08-07T22:20:52.342Z,29.33
2022-08-07T22:23:24.473Z,29.34
2022-08-07T22:26:01.391Z,29.37
2022-08-07T22:28:40.369Z,29.38
2022-08-07T22:31:45.384Z,29.36
2022-08-07T22:34:12.904Z,29.39
2022-08-07T22:36:47.599Z,29.39
2022-08-07T22:39:26.155Z,29.38
2022-08-07T22:42:18.926Z,29.42
2022-08-07T22:44:58.678Z,29.41
2022-08-07T22:47:55.891Z,29.42
2022-08-07T22:51:02.987Z,29.42
2022-08-07T22:54:07.301Z,29.45
2022-08-07T22:56:37.620Z,29.47
2022-08-07T22:59:33.100Z,29.42
2022-08-07T23:02:13.938Z,29.35
2022-08-07T23:06:10.294Z,29.33
2022-08-07T23:07:57.996Z,29.35
2022-08-07T23:10:41.343Z,29.33
2022-08-07T23:14:05.182Z,29.34
2022-08-07T23:16:54.606Z,29.35
2022-08-07T23:19:38.995Z,29.42
2022-08-07T23:22:32.609Z,29.41
2022-08-07T23:25:16.058Z,29.42
2022-08-07T23:28:22.142Z,29.42
2022-08-07T23:31:11.193Z,29.40
2022-08-07T23:34:22.144Z,29.41
2022-08-07T23:37:22.884Z,29.47
2022-08-07T23:40:06.054Z,29.42
2022-08-07T23:42:53.088Z,29.40
2022-08-07T23:45:33.006Z,29.44
2022-08-07T23:48:58.601Z,29.45
2022-08-07T23:53:00.712Z,29.39
2022-08-07T23:54:36.084Z,29.34
2022-08-07T23:57:18.562Z,29.37
